createdAt,value
2023-07-08T00:00:18.063Z,4.70
2023-07-08T00:02:44.759Z,4.40
2023-07-08T00:05:12.198Z,4.70
2023-07-08T00:07:39.261Z,4.32
2023-07-08T00:10:16.610Z,4.50
2023-07-08T00:12:44.093Z,4.50
2023-07-08T00:15:11.323Z,4.22
2023-07-08T00:17:37.922Z,4.13
2023-07-08T00:20:15.416Z,4.43
2023-07-08T00:22:42.362Z,4.75
2023-07-08T00:25:09.431Z,4.80
2023-07-08T00:27:35.981Z,4.53
2023-07-08T00:30:02.549Z,3.85
2023-07-08T00:32:29.106Z,4.30
2023-07-08T00:34:55.587Z,4.00
2023-07-08T00:37:22.103Z,3.88
2023-07-08T00:39:48.612Z,4.18
2023-07-08T00:42:20.544Z,3.72
2023-07-08T00:44:47.295Z,4.32
2023-07-08T00:47:15.741Z,4.15
2023-07-08T00:49:42.208Z,4.00
2023-07-08T00:52:19.495Z,3.90
2023-07-08T00:54:46.016Z,4.03
2023-07-08T00:57:12.762Z,4.00
2023-07-08T00:59:59.523Z,4.28
2023-07-08T01:02:27.824Z,4.10
2023-07-08T01:04:59.700Z,3.80
2023-07-08T01:07:27.198Z,4.35
2023-07-08T01:09:58.369Z,3.80
2023-07-08T01:12:27.467Z,4.35
2023-07-08T01:14:54.679Z,3.92
2023-07-08T01:17:23.145Z,4.10
2023-07-08T01:19:49.940Z,4.05
2023-07-08T01:22:16.486Z,4.07
2023-07-08T01:24:44.735Z,4.28
2023-07-08T01:27:13.951Z,3.55
2023-07-08T01:29:40.575Z,3.80
2023-07-08T01:32:07.452Z,4.18
2023-07-08T01:34:34.967Z,4.43
2023-07-08T01:37:02.880Z,4.10
2023-07-08T01:39:30.745Z,3.58
2023-07-08T01:41:58.720Z,4.07
2023-07-08T01:44:25.286Z,3.78
2023-07-08T01:46:53.327Z,4.13
2023-07-08T01:49:20.214Z,4.32
2023-07-08T01:51:47.430Z,4.65
2023-07-08T01:54:13.944Z,4.40
2023-07-08T01:56:40.411Z,4.93
2023-07-08T01:59:07.028Z,4.68
2023-07-08T02:01:33.521Z,4.75
2023-07-08T02:04:00.078Z,4.85
2023-07-08T02:06:26.564Z,4.95
2023-07-08T02:08:53.113Z,4.70
2023-07-08T02:11:19.607Z,4.93
2023-07-08T02:13:46.348Z,4.97
2023-07-08T02:16:12.997Z,4.82
2023-07-08T02:18:39.516Z,5.15
2023-07-08T02:21:06.826Z,5.40
2023-07-08T02:23:33.375Z,4.85
2023-07-08T02:25:59.883Z,5.32
2023-07-08T02:28:26.444Z,4.40
2023-07-08T02:30:52.920Z,5.38
2023-07-08T02:33:19.444Z,4.63
2023-07-08T02:35:46.796Z,5.13
2023-07-08T02:38:13.515Z,5.15
2023-07-08T02:40:40.107Z,4.55
2023-07-08T02:43:06.645Z,5.30
2023-07-08T02:45:33.110Z,4.70
2023-07-08T02:47:59.613Z,5.25
2023-07-08T02:50:26.199Z,4.95
2023-07-08T02:52:52.748Z,4.63
2023-07-08T02:55:19.261Z,5.13
2023-07-08T02:57:45.833Z,5.35
2023-07-08T03:00:12.883Z,4.95
2023-07-08T03:02:39.478Z,4.13
2023-07-08T03:05:06.380Z,4.80
2023-07-08T03:07:32.841Z,5.03
2023-07-08T03:09:59.458Z,5.03
2023-07-08T03:12:25.922Z,5.20
2023-07-08T03:14:52.418Z,4.63
2023-07-08T03:17:21.029Z,4.53
2023-07-08T03:19:47.847Z,4.25
2023-07-08T03:22:14.391Z,4.70
2023-07-08T03:24:47.237Z,4.78
2023-07-08T03:27:14.665Z,4.85
2023-07-08T03:29:41.703Z,4.50
2023-07-08T03:32:12.515Z,4.32
2023-07-08T03:34:39.356Z,4.80
2023-07-08T03:37:06.499Z,4.68
2023-07-08T03:39:33.180Z,4.68
2023-07-08T03:42:00.110Z,5.35
2023-07-08T03:44:26.665Z,4.80
2023-07-08T03:46:53.580Z,4.78
2023-07-08T03:49:24.916Z,4.65
2023-07-08T03:51:55.077Z,5.10
2023-07-08T03:54:22.872Z,5.18
2023-07-08T03:56:49.381Z,5.40
2023-07-08T03:59:16.307Z,5.20
2023-07-08T04:01:42.829Z,5.18
2023-07-08T04:04:13.681Z,5.00
2023-07-08T04:06:40.257Z,5.38
2023-07-08T04:09:08.120Z,4.93
2023-07-08T04:11:34.608Z,4.78
2023-07-08T04:14:01.348Z,5.65
2023-07-08T04:16:31.507Z,5.57
2023-07-08T04:18:58.043Z,5.50
2023-07-08T04:21:26.351Z,5.30
2023-07-08T04:23:53.077Z,5.55
2023-07-08T04:26:20.228Z,6.28
2023-07-08T04:28:47.114Z,5.72
2023-07-08T04:31:14.005Z,5.72
2023-07-08T04:33:40.672Z,5.65
2023-07-08T04:36:12.524Z,5.95
2023-07-08T04:38:39.074Z,6.28
2023-07-08T04:41:06.653Z,5.75
2023-07-08T04:43:33.243Z,5.68
2023-07-08T04:46:00.150Z,5.22
2023-07-08T04:48:26.777Z,5.90
2023-07-08T04:50:53.727Z,5.38
2023-07-08T04:53:20.294Z,5.38
2023-07-08T04:55:56.971Z,4.97
2023-07-08T04:58:23.559Z,4.97
2023-07-08T05:00:50.130Z,5.18
2023-07-08T05:03:16.638Z,4.75
2023-07-08T05:05:43.433Z,4.70
2023-07-08T05:08:10.192Z,5.05
2023-07-08T05:10:36.744Z,4.72
2023-07-08T05:13:03.289Z,4.50
2023-07-08T05:15:29.833Z,4.43
2023-07-08T05:17:56.448Z,4.90
2023-07-08T05:20:23.936Z,5.38
2023-07-08T05:22:50.525Z,5.35
2023-07-08T05:25:17.235Z,5.03
2023-07-08T05:27:43.738Z,4.35
2023-07-08T05:30:13.886Z,5.15
2023-07-08T05:32:40.415Z,4.95
2023-07-08T05:35:08.524Z,5.32
2023-07-08T05:37:36.385Z,5.07
2023-07-08T05:40:05.667Z,5.15
2023-07-08T05:42:32.221Z,5.35
2023-07-08T05:44:58.684Z,5.20
2023-07-08T05:47:25.243Z,5.10
2023-07-08T05:49:51.860Z,6.22
2023-07-08T05:52:18.372Z,5.47
2023-07-08T05:54:44.896Z,5.18
2023-07-08T05:57:12.315Z,5.53
2023-07-08T05:59:44.336Z,5.35
2023-07-08T06:02:11.851Z,5.63
2023-07-08T06:04:38.377Z,4.78
2023-07-08T06:07:05.165Z,5.38
2023-07-08T06:09:31.696Z,5.65
2023-07-08T06:11:58.260Z,5.47
2023-07-08T06:14:24.811Z,6.00
2023-07-08T06:16:51.598Z,6.03
2023-07-08T06:19:18.361Z,5.22
2023-07-08T06:21:45.071Z,5.10
2023-07-08T06:24:11.585Z,4.93
2023-07-08T06:26:38.117Z,4.90
2023-07-08T06:29:05.250Z,5.38
2023-07-08T06:31:31.830Z,5.68
2023-07-08T06:33:58.549Z,5.30
2023-07-08T06:36:25.115Z,5.78
2023-07-08T06:38:51.687Z,4.63
2023-07-08T06:41:18.365Z,4.38
2023-07-08T06:43:44.981Z,4.28
2023-07-08T06:46:11.527Z,4.63
2023-07-08T06:48:38.167Z,5.07
2023-07-08T06:51:04.692Z,4.88
2023-07-08T06:53:31.252Z,4.93
2023-07-08T06:55:57.893Z,4.90
2023-07-08T06:58:24.519Z,4.68
2023-07-08T07:00:51.187Z,5.47
2023-07-08T07:03:17.892Z,4.95
2023-07-08T07:05:44.762Z,5.53
2023-07-08T07:08:11.388Z,5.32
2023-07-08T07:10:38.054Z,5.00
2023-07-08T07:13:04.807Z,4.53
2023-07-08T07:15:31.720Z,4.93
2023-07-08T07:17:58.752Z,4.82
2023-07-08T07:20:26.230Z,4.80
2023-07-08T07:22:53.349Z,5.03
2023-07-08T07:25:20.067Z,4.72
2023-07-08T07:27:46.551Z,4.90
2023-07-08T07:30:16.543Z,4.18
2023-07-08T07:32:44.009Z,5.07
2023-07-08T07:35:14.229Z,4.43
2023-07-08T07:37:41.145Z,4.03
2023-07-08T07:40:13.355Z,4.38
2023-07-08T07:42:40.625Z,4.47
2023-07-08T07:45:07.600Z,3.95
2023-07-08T07:47:35.964Z,4.97
2023-07-08T07:50:03.718Z,4.10
2023-07-08T07:52:30.255Z,4.10
2023-07-08T07:54:56.828Z,5.15
2023-07-08T07:57:23.730Z,5.13
2023-07-08T07:59:50.350Z,4.47
2023-07-08T08:02:17.337Z,4.38
2023-07-08T08:04:44.071Z,5.07
2023-07-08T08:07:11.120Z,4.38
2023-07-08T08:09:38.090Z,4.00
2023-07-08T08:12:05.258Z,4.10
2023-07-08T08:14:31.948Z,4.35
2023-07-08T08:16:58.607Z,4.25
2023-07-08T08:19:25.290Z,5.07
2023-07-08T08:21:51.854Z,4.07
2023-07-08T08:24:18.524Z,4.72
2023-07-08T08:26:45.357Z,4.20
2023-07-08T08:29:12.118Z,3.80
2023-07-08T08:31:38.652Z,4.03
2023-07-08T08:34:05.376Z,4.13
2023-07-08T08:36:31.972Z,4.95
2023-07-08T08:38:58.507Z,4.43
2023-07-08T08:41:30.949Z,3.75
2023-07-08T08:43:57.679Z,3.80
2023-07-08T08:46:30.890Z,3.92
2023-07-08T08:49:07.075Z,3.90
2023-07-08T08:51:33.944Z,3.63
2023-07-08T08:54:00.922Z,4.13
2023-07-08T08:56:29.555Z,3.90
2023-07-08T08:58:59.284Z,4.43
2023-07-08T09:01:26.243Z,4.30
2023-07-08T09:04:01.788Z,3.90
2023-07-08T09:06:30.224Z,3.78
2023-07-08T09:08:58.245Z,4.20
2023-07-08T09:11:25.392Z,3.67
2023-07-08T09:13:52.910Z,9.07
2023-07-08T09:16:26.726Z,10.23
2023-07-08T09:18:53.233Z,4.95
2023-07-08T09:21:28.099Z,4.30
2023-07-08T09:24:01.356Z,3.95
2023-07-08T09:26:28.974Z,4.43
2023-07-08T09:28:55.742Z,4.30
2023-07-08T09:31:22.259Z,4.00
2023-07-08T09:33:51.470Z,4.47
2023-07-08T09:36:19.547Z,4.30
2023-07-08T09:38:50.530Z,4.28
2023-07-08T09:41:29.339Z,4.05
2023-07-08T09:44:04.227Z,4.13
2023-07-08T09:46:36.385Z,4.03
2023-07-08T09:49:10.522Z,4.10
2023-07-08T09:51:37.117Z,4.03
2023-07-08T09:54:03.731Z,4.30
2023-07-08T09:56:31.590Z,3.92
2023-07-08T09:58:58.234Z,4.18
2023-07-08T10:01:27.100Z,3.55
2023-07-08T10:03:58.758Z,4.13
2023-07-08T10:06:30.057Z,4.03
2023-07-08T10:08:59.089Z,3.85
2023-07-08T10:11:31.858Z,4.50
2023-07-08T10:14:13.421Z,3.90
2023-07-08T10:16:41.739Z,4.32
2023-07-08T10:19:16.833Z,3.88
2023-07-08T10:21:46.370Z,3.90
2023-07-08T10:24:31.714Z,3.80
2023-07-08T10:27:21.439Z,4.53
2023-07-08T10:29:47.953Z,3.83
2023-07-08T10:32:17.586Z,4.03
2023-07-08T10:35:10.082Z,4.28
2023-07-08T10:37:53.152Z,4.00
2023-07-08T10:40:19.608Z,3.83
2023-07-08T10:43:01.234Z,4.20
2023-07-08T10:45:35.838Z,4.07
2023-07-08T10:48:11.471Z,3.80
2023-07-08T10:53:17.135Z,4.28
2023-07-08T10:56:03.888Z,4.47
2023-07-08T10:58:37.603Z,4.50
2023-07-08T11:01:27.427Z,4.25
2023-07-08T11:04:17.322Z,4.20
2023-07-08T11:07:04.517Z,3.92
2023-07-08T11:09:47.386Z,4.72
2023-07-08T11:12:14.282Z,3.80
2023-07-08T11:14:52.713Z,4.60
2023-07-08T11:17:22.284Z,3.95
2023-07-08T11:19:58.606Z,4.45
2023-07-08T11:22:26.409Z,4.03
2023-07-08T11:24:55.641Z,3.78
2023-07-08T11:27:27.821Z,4.20
2023-07-08T11:29:56.459Z,4.43
2023-07-08T11:32:24.816Z,4.47
2023-07-08T11:34:52.332Z,4.93
2023-07-08T11:37:20.171Z,4.63
2023-07-08T11:39:47.411Z,3.90
2023-07-08T11:42:17.067Z,4.22
2023-07-08T11:44:53.042Z,4.05
2023-07-08T11:47:22.982Z,4.65
2023-07-08T11:49:50.527Z,4.03
2023-07-08T11:52:20.608Z,4.20
2023-07-08T11:54:48.181Z,4.50
2023-07-08T11:57:19.492Z,4.30
2023-07-08T11:59:47.299Z,4.72
2023-07-08T12:02:15.508Z,4.35
2023-07-08T12:04:54.160Z,4.13
2023-07-08T12:07:41.888Z,4.63
2023-07-08T12:10:14.819Z,4.25
2023-07-08T12:12:45.739Z,4.38
2023-07-08T12:15:14.120Z,4.32
2023-07-08T12:17:41.127Z,4.18
2023-07-08T12:20:14.273Z,4.70
2023-07-08T12:22:40.755Z,4.20
2023-07-08T12:25:11.704Z,4.22
2023-07-08T12:27:38.195Z,4.43
2023-07-08T12:30:05.036Z,4.28
2023-07-08T12:32:31.636Z,5.05
2023-07-08T12:34:58.209Z,4.10
2023-07-08T12:37:24.858Z,4.40
2023-07-08T12:39:55.633Z,4.50
2023-07-08T12:42:22.130Z,4.53
2023-07-08T12:44:49.785Z,4.55
2023-07-08T12:47:21.445Z,4.80
2023-07-08T12:49:48.051Z,4.38
2023-07-08T12:52:22.472Z,4.00
2023-07-08T12:54:49.173Z,4.75
2023-07-08T12:57:18.818Z,4.22
2023-07-08T12:59:45.862Z,5.15
2023-07-08T13:02:16.731Z,4.45
2023-07-08T13:04:44.286Z,4.88
2023-07-08T13:07:19.367Z,4.50
2023-07-08T13:09:49.403Z,4.57
2023-07-08T13:12:25.728Z,4.53
2023-07-08T13:14:53.893Z,4.47
2023-07-08T13:17:20.663Z,4.38
2023-07-08T13:19:47.689Z,4.40
2023-07-08T13:22:17.253Z,4.95
2023-07-08T13:24:44.040Z,4.28
2023-07-08T13:27:14.364Z,4.95
2023-07-08T13:29:40.947Z,4.40
2023-07-08T13:32:07.916Z,4.10
2023-07-08T13:34:35.061Z,4.65
2023-07-08T13:37:02.446Z,4.53
2023-07-08T13:39:30.816Z,4.90
2023-07-08T13:41:57.859Z,4.57
2023-07-08T13:44:24.425Z,4.45
2023-07-08T13:46:50.924Z,4.95
2023-07-08T13:49:29.102Z,4.88
2023-07-08T13:52:25.170Z,5.22
2023-07-08T13:54:56.506Z,4.68
2023-07-08T13:57:24.523Z,4.88
2023-07-08T13:59:51.059Z,4.97
2023-07-08T14:02:17.647Z,5.07
2023-07-08T14:04:44.419Z,4.35
2023-07-08T14:07:14.975Z,4.90
2023-07-08T14:09:41.459Z,4.97
2023-07-08T14:12:08.190Z,4.47
2023-07-08T14:14:34.701Z,4.80
2023-07-08T14:17:01.238Z,5.07
2023-07-08T14:19:31.904Z,4.88
2023-07-08T14:22:22.003Z,5.20
2023-07-08T14:24:48.575Z,4.32
2023-07-08T14:27:15.871Z,4.13
2023-07-08T14:29:42.483Z,4.82
2023-07-08T14:32:16.277Z,4.90
2023-07-08T14:34:43.310Z,4.70
2023-07-08T14:37:14.513Z,5.15
2023-07-08T14:39:40.996Z,5.20
2023-07-08T14:42:11.682Z,4.68
2023-07-08T14:44:38.343Z,4.85
2023-07-08T14:47:12.334Z,5.00
2023-07-08T14:49:38.994Z,4.70
2023-07-08T14:52:05.703Z,4.57
2023-07-08T14:54:32.353Z,4.90
2023-07-08T14:56:59.050Z,4.75
2023-07-08T14:59:26.686Z,5.13
2023-07-08T15:01:54.263Z,5.22
2023-07-08T15:04:21.001Z,4.63
2023-07-08T15:06:47.634Z,4.93
2023-07-08T15:09:14.802Z,4.93
2023-07-08T15:11:41.919Z,4.70
2023-07-08T15:14:22.290Z,4.97
2023-07-08T15:16:49.579Z,4.70
2023-07-08T15:19:16.197Z,5.28
2023-07-08T15:21:42.867Z,5.00
2023-07-08T15:24:10.546Z,4.55
2023-07-08T15:26:37.031Z,5.55
2023-07-08T15:29:03.603Z,5.65
2023-07-08T15:31:33.894Z,5.40
2023-07-08T15:34:00.507Z,4.93
2023-07-08T15:36:27.067Z,5.32
2023-07-08T15:38:53.609Z,5.30
2023-07-08T15:41:21.851Z,5.68
2023-07-08T15:43:49.175Z,5.07
2023-07-08T15:46:16.656Z,5.28
2023-07-08T15:48:43.148Z,4.90
2023-07-08T15:51:14.282Z,5.75
2023-07-08T15:53:40.769Z,5.32
2023-07-08T15:56:10.217Z,5.28
2023-07-08T15:58:36.694Z,5.25
2023-07-08T16:01:04.579Z,5.10
2023-07-08T16:03:32.978Z,5.22
2023-07-08T16:05:59.952Z,5.28
2023-07-08T16:08:27.211Z,5.40
2023-07-08T16:10:55.164Z,4.97
2023-07-08T16:13:23.485Z,4.65
2023-07-08T16:15:50.189Z,5.47
2023-07-08T16:18:16.889Z,5.38
2023-07-08T16:20:43.382Z,4.80
2023-07-08T16:23:09.941Z,5.10
2023-07-08T16:25:39.590Z,4.85
2023-07-08T16:28:06.687Z,5.20
2023-07-08T16:30:34.131Z,5.47
2023-07-08T16:33:00.818Z,5.10
2023-07-08T16:35:27.408Z,5.57
2023-07-08T16:37:54.720Z,5.65
2023-07-08T16:40:25.527Z,5.32
2023-07-08T16:42:54.795Z,5.38
2023-07-08T16:45:21.872Z,5.25
2023-07-08T16:47:48.790Z,5.57
2023-07-08T16:50:16.808Z,5.22
2023-07-08T16:52:43.717Z,5.22
2023-07-08T16:55:20.396Z,4.82
2023-07-08T16:57:47.183Z,5.60
2023-07-08T17:00:14.970Z,5.53
2023-07-08T17:02:41.831Z,6.82
2023-07-08T17:05:19.608Z,6.18
2023-07-08T17:07:46.325Z,6.00
2023-07-08T17:10:12.917Z,5.35
2023-07-08T17:12:39.571Z,5.13
2023-07-08T17:15:06.440Z,5.45
2023-07-08T17:17:32.942Z,5.22
2023-07-08T17:20:01.263Z,5.00
2023-07-08T17:22:27.793Z,4.95
2023-07-08T17:24:54.284Z,4.65
2023-07-08T17:27:20.805Z,5.00
2023-07-08T17:29:47.299Z,5.20
2023-07-08T17:32:13.974Z,4.97
2023-07-08T17:34:40.874Z,4.82
2023-07-08T17:37:08.897Z,5.10
2023-07-08T17:39:35.409Z,5.00
2023-07-08T17:42:01.920Z,4.85
2023-07-08T17:44:28.558Z,5.30
2023-07-08T17:46:55.590Z,5.07
2023-07-08T17:49:22.209Z,4.65
2023-07-08T17:51:50.831Z,4.95
2023-07-08T17:54:18.692Z,4.90
2023-07-08T17:56:47.592Z,5.13
2023-07-08T17:59:19.840Z,5.55
2023-07-08T18:01:46.701Z,4.95
2023-07-08T18:04:13.743Z,5.07
2023-07-08T18:06:40.267Z,5.68
2023-07-08T18:09:07.444Z,5.47
2023-07-08T18:11:35.561Z,5.45
2023-07-08T18:14:02.195Z,5.35
2023-07-08T18:16:28.856Z,5.32
2023-07-08T18:18:55.574Z,4.82
2023-07-08T18:21:23.367Z,5.63
2023-07-08T18:23:50.872Z,5.88
2023-07-08T18:26:25.062Z,5.95
2023-07-08T18:28:51.896Z,5.63
2023-07-08T18:31:20.122Z,5.30
2023-07-08T18:33:46.786Z,5.15
2023-07-08T18:36:14.356Z,5.45
2023-07-08T18:38:41.320Z,4.90
2023-07-08T18:41:27.661Z,4.68
2023-07-08T18:43:55.422Z,5.63
2023-07-08T18:46:22.239Z,5.68
2023-07-08T18:48:48.914Z,5.22
2023-07-08T18:51:19.590Z,5.22
2023-07-08T18:53:46.212Z,5.25
2023-07-08T18:56:15.752Z,4.90
2023-07-08T18:58:42.970Z,5.10
2023-07-08T19:01:14.599Z,5.53
2023-07-08T19:03:41.185Z,5.25
2023-07-08T19:06:11.894Z,5.15
2023-07-08T19:08:38.407Z,5.18
2023-07-08T19:11:06.231Z,4.97
2023-07-08T19:13:33.478Z,4.68
2023-07-08T19:16:00.175Z,5.53
2023-07-08T19:18:26.980Z,5.22
2023-07-08T19:20:53.562Z,4.82
2023-07-08T19:23:22.549Z,5.38
2023-07-08T19:25:49.013Z,4.93
2023-07-08T19:28:15.815Z,5.32
2023-07-08T19:30:43.810Z,5.55
2023-07-08T19:33:13.471Z,5.25
2023-07-08T19:35:44.133Z,5.25
2023-07-08T19:38:14.826Z,4.90
2023-07-08T19:40:51.753Z,5.20
2023-07-08T19:43:21.529Z,5.28
2023-07-08T19:45:48.241Z,5.63
2023-07-08T19:48:15.274Z,5.63
2023-07-08T19:50:41.868Z,4.85
2023-07-08T19:53:09.483Z,4.38
2023-07-08T19:55:36.442Z,5.15
2023-07-08T19:58:03.142Z,4.82
2023-07-08T20:00:31.125Z,5.28
2023-07-08T20:02:58.668Z,5.30
2023-07-08T20:05:30.885Z,5.00
2023-07-08T20:08:03.510Z,5.45
2023-07-08T20:10:30.395Z,5.78
2023-07-08T20:12:58.135Z,5.80
2023-07-08T20:15:26.565Z,5.50
2023-07-08T20:17:53.522Z,5.78
2023-07-08T20:20:24.416Z,5.40
2023-07-08T20:22:51.248Z,6.05
2023-07-08T20:25:18.238Z,5.82
2023-07-08T20:27:46.070Z,5.32
2023-07-08T20:30:20.504Z,5.85
2023-07-08T20:32:47.152Z,6.03
2023-07-08T20:35:15.211Z,6.28
2023-07-08T20:37:41.865Z,5.90
2023-07-08T20:40:35.791Z,5.57
2023-07-08T20:43:02.390Z,5.85
2023-07-08T20:45:31.036Z,6.00
2023-07-08T20:47:58.879Z,6.22
2023-07-08T20:50:26.453Z,6.30
2023-07-08T20:52:53.747Z,5.95
2023-07-08T20:55:21.172Z,6.78
2023-07-08T20:57:48.368Z,6.10
2023-07-08T21:00:20.949Z,6.80
2023-07-08T21:02:47.610Z,6.72
2023-07-08T21:05:14.284Z,5.95
2023-07-08T21:07:41.192Z,6.20
2023-07-08T21:10:12.504Z,6.13
2023-07-08T21:12:39.131Z,6.38
2023-07-08T21:15:06.071Z,5.88
2023-07-08T21:17:32.776Z,5.90
2023-07-08T21:19:59.368Z,6.03
2023-07-08T21:22:26.000Z,5.95
2023-07-08T21:24:52.668Z,6.40
2023-07-08T21:27:21.099Z,6.60
2023-07-08T21:29:47.844Z,6.72
2023-07-08T21:32:14.462Z,6.50
2023-07-08T21:34:41.032Z,6.55
2023-07-08T21:37:07.582Z,6.40
2023-07-08T21:39:34.560Z,6.30
2023-07-08T21:42:01.173Z,5.78
2023-07-08T21:44:27.789Z,6.22
2023-07-08T21:46:54.510Z,5.90
2023-07-08T21:49:21.174Z,6.15
2023-07-08T21:51:49.113Z,6.13
2023-07-08T21:54:16.063Z,6.72
2023-07-08T21:56:42.805Z,6.50
2023-07-08T21:59:15.633Z,5.55
2023-07-08T22:01:43.136Z,6.10
2023-07-08T22:04:11.096Z,5.85
2023-07-08T22:06:37.910Z,6.13
2023-07-08T22:09:04.625Z,5.70
2023-07-08T22:11:35.555Z,5.80
2023-07-08T22:14:03.030Z,5.78
2023-07-08T22:16:32.758Z,6.65
2023-07-08T22:18:59.569Z,6.43
2023-07-08T22:21:37.345Z,5.57
2023-07-08T22:24:05.037Z,6.00
2023-07-08T22:26:35.811Z,5.72
2023-07-08T22:29:03.120Z,6.10
2023-07-08T22:31:37.483Z,5.68
2023-07-08T22:34:10.880Z,6.20
2023-07-08T22:36:37.458Z,6.78
2023-07-08T22:39:05.012Z,6.28
2023-07-08T22:41:35.789Z,6.05
2023-07-08T22:44:02.432Z,6.00
2023-07-08T22:46:29.112Z,6.22
2023-07-08T22:48:58.628Z,6.00
2023-07-08T22:51:26.833Z,6.05
2023-07-08T22:53:55.152Z,5.95
2023-07-08T22:56:21.907Z,6.10
2023-07-08T22:58:48.488Z,6.10
2023-07-08T23:01:15.052Z,6.20
2023-07-08T23:03:42.170Z,6.18
2023-07-08T23:06:11.194Z,6.15
2023-07-08T23:08:37.856Z,5.60
2023-07-08T23:11:04.717Z,5.93
2023-07-08T23:13:38.994Z,5.78
2023-07-08T23:16:17.506Z,5.60
2023-07-08T23:18:48.356Z,5.60
2023-07-08T23:21:15.702Z,5.75
2023-07-08T23:23:42.173Z,5.95
2023-07-08T23:26:17.007Z,5.82
2023-07-08T23:28:51.371Z,5.53
2023-07-08T23:31:18.103Z,6.88
2023-07-08T23:33:45.769Z,6.35
2023-07-08T23:36:35.400Z,5.57
2023-07-08T23:39:02.947Z,6.72
2023-07-08T23:41:30.137Z,5.78
2023-07-08T23:43:56.860Z,6.15
2023-07-08T23:46:25.677Z,6.28
2023-07-08T23:48:52.841Z,6.28
2023-07-08T23:51:19.477Z,6.22
2023-07-08T23:53:45.989Z,6.50
2023-07-08T23:56:16.354Z,6.45
2023-07-08T23:58:43.286Z,6.40
